Panagia Gorgoepikoo — SV5327 — position and weather

sailwx.info

Track history (hours):
 
Tides and Currents Weather Stations Pressure Air Temp Water Temp Dewpoint Dewpoint Depression Visibility Wind Speed Wind Dir Waves Ship Positions

Panagia Gorgoepikoo

Last reported at 2017-Dec-11 13:36 UTC. Time now 2017-Dec-14 17:16 UTC.
Position N 39°59' E 024°06'.

Length 20 m; draft 2 m.

Type: Fishing. MMSI: 237963000.

Date/timePositionNaut miles runAvg speedWind from/ knotsBaromVisibWave heightAir tempDewpointWater temp
2017-Dec-11 13:36N 39°59' E 024°06'2 8.6
2017-Dec-11 13:23N 40°00' E 024°08'4 9.2
2017-Dec-11 12:54N 40°03' E 024°13'12 8.4
2017-Dec-11 11:28N 40°11' E 024°24'4 9.8
2017-Dec-11 11:00N 40°16' E 024°24'5 9.7
2017-Dec-11 10:29N 40°21' E 024°24'13 9.5
2017-Dec-11 09:07N 40°33' E 024°28'1 9.8
2017-Dec-11 09:00N 40°35' E 024°28'510.1
2017-Dec-11 08:30N 40°39' E 024°30'5 9.5
2017-Dec-11 08:00N 40°44' E 024°32'5 9.1
2017-Dec-11 07:30N 40°48' E 024°35'5 9.0
2017-Dec-11 07:00N 40°51' E 024°40'9 0.9
2017-Dec-10 19:56N 40°47' E 024°28'2 5.2
2017-Dec-10 19:31N 40°49' E 024°26'2 4.8
2017-Dec-10 19:01N 40°51' E 024°25'3 6.2
2017-Dec-10 18:31N 40°49' E 024°23'2 3.5
2017-Dec-10 18:01N 40°47' E 024°22'0 0.5
2017-Dec-10 17:31N 40°47' E 024°22'0 0.2
2017-Dec-10 16:25N 40°47' E 024°22'0 0.6
2017-Dec-10 16:00N 40°47' E 024°22'1 1.6
2017-Dec-10 15:30N 40°46' E 024°22'0 1.0
2017-Dec-10 15:00N 40°46' E 024°23'4 7.4
2017-Dec-10 14:30N 40°50' E 024°21'6 0.1
2017-Dec-08 11:28N 40°49' E 024°29'  
Track history (hours):
 
Tides and Currents Weather Stations Pressure Air Temp Water Temp Dewpoint Dewpoint Depression Visibility Wind Speed Wind Dir Waves Ship Positions

Panagia Gorgoepikoo

Last reported at 2017-Dec-11 13:36 UTC. Time now 2017-Dec-14 17:16 UTC.
Position N 39°59' E 024°06'.

Length 20 m; draft 2 m.

Type: Fishing. MMSI: 237963000.

Date/timePositionNaut miles runAvg speedWind from/ knotsBaromVisibWave heightAir tempDewpointWater temp
2017-Dec-11 13:36N 39°59' E 024°06'2 8.6
2017-Dec-11 13:23N 40°00' E 024°08'4 9.2
2017-Dec-11 12:54N 40°03' E 024°13'12 8.4
2017-Dec-11 11:28N 40°11' E 024°24'4 9.8
2017-Dec-11 11:00N 40°16' E 024°24'5 9.7
2017-Dec-11 10:29N 40°21' E 024°24'13 9.5
2017-Dec-11 09:07N 40°33' E 024°28'1 9.8
2017-Dec-11 09:00N 40°35' E 024°28'510.1
2017-Dec-11 08:30N 40°39' E 024°30'5 9.5
2017-Dec-11 08:00N 40°44' E 024°32'5 9.1
2017-Dec-11 07:30N 40°48' E 024°35'5 9.0
2017-Dec-11 07:00N 40°51' E 024°40'9 0.9
2017-Dec-10 19:56N 40°47' E 024°28'2 5.2
2017-Dec-10 19:31N 40°49' E 024°26'2 4.8
2017-Dec-10 19:01N 40°51' E 024°25'3 6.2
2017-Dec-10 18:31N 40°49' E 024°23'2 3.5
2017-Dec-10 18:01N 40°47' E 024°22'0 0.5
2017-Dec-10 17:31N 40°47' E 024°22'0 0.2
2017-Dec-10 16:25N 40°47' E 024°22'0 0.6
2017-Dec-10 16:00N 40°47' E 024°22'1 1.6
2017-Dec-10 15:30N 40°46' E 024°22'0 1.0
2017-Dec-10 15:00N 40°46' E 024°23'4 7.4
2017-Dec-10 14:30N 40°50' E 024°21'6 0.1
2017-Dec-08 11:28N 40°49' E 024°29'  

Dump ship's entire track history